Time;durP1;ratioP1;P1;durP2;ratioP2;P2;SDS_P1;SDS_P2;PMS_P1;PMS_P2;Temp;Humidity;BMP_temperature;BMP_pressure;BME280_temperature;BME280_humidity;BME280_pressure;Samples;Min_cycle;Max_cycle;Signal;HPM_P1;HPM_P2
2022/10/18 00:01:37;;;;;;;;;;;;;;;12.82;65.44;101007.25;4353944;32;33960;-89
2022/10/18 00:04:06;;;;;;;;;;;;;;;12.87;65.43;101009.84;4356143;32;33956;-86
2022/10/18 00:06:36;;;;;;;;;;;;;;;12.73;65.81;100999.47;4359636;32;33571;-86
2022/10/18 00:09:13;;;;;;;;;;;;;;;12.77;65.78;101008.12;4361868;32;33679;-88
2022/10/18 00:11:41;;;;;;;;;;;;;;;12.62;66.38;101011.62;4354503;32;33435;-87
2022/10/18 00:14:10;;;;;;;;;;;;;;;12.69;66.06;101015.09;4356081;32;33574;-89
2022/10/18 00:16:43;;;;;;;;;;;;;;;12.60;66.27;101006.37;4357128;32;33668;-86
2022/10/18 00:19:14;;;;;;;;;;;;;;;12.71;65.49;101006.41;4361370;32;33506;-86
2022/10/18 00:21:43;;;;;;;;;;;;;;;12.58;66.03;100999.44;4353013;32;34937;-91
2022/10/18 00:24:26;;;;;;;;;;;;;;;12.50;66.23;100994.25;4355070;32;33755;-87
2022/10/18 00:26:54;;;;;;;;;;;;;;;12.68;65.13;100987.28;4353279;32;33648;-89
2022/10/18 00:29:26;;;;;;;;;;;;;;;12.67;64.93;100989.03;4353939;32;32585;-86
2022/10/18 00:34:28;;;;;;;;;;;;;;;12.55;64.87;100995.12;4345274;32;34201;-88
2022/10/18 00:37:02;;;;;;;;;;;;;;;12.39;65.48;100982.97;4348883;32;34400;-88
2022/10/18 00:39:32;;;;;;;;;;;;;;;12.43;65.26;100983.84;4357876;32;33718;-89
2022/10/18 00:42:02;;;;;;;;;;;;;;;12.29;65.69;100991.66;4354911;32;33600;-88
2022/10/18 00:44:49;;;;;;;;;;;;;;;12.25;65.58;100982.97;4361897;32;33566;-86
2022/10/18 00:47:18;;;;;;;;;;;;;;;12.33;65.45;100993.41;4363441;32;35364;-88
2022/10/18 00:49:54;;;;;;;;;;;;;;;12.15;65.82;100989.03;4360831;32;32371;-88
2022/10/18 00:52:28;;;;;;;;;;;;;;;11.92;66.68;100987.25;4354762;32;34913;-88
2022/10/18 00:54:59;;;;;;;;;;;;;;;11.90;66.77;100989.00;4355323;32;34948;-89
2022/10/18 00:57:27;;;;;;;;;;;;;;;12.12;66.18;100983.81;4361164;32;34099;-90
2022/10/18 00:59:56;;;;;;;;;;;;;;;12.20;65.91;100981.22;4355771;32;32524;-87
2022/10/18 01:02:26;;;;;;;;;;;;;;;12.28;65.40;100972.56;4355912;32;33798;-86
2022/10/18 01:04:59;;;;;;;;;;;;;;;12.36;65.05;100973.44;4348612;32;34167;-85
2022/10/18 01:07:32;;;;;;;;;;;;;;;12.28;65.20;100969.09;4359600;32;34740;-87
2022/10/18 01:10:09;;;;;;;;;;;;;;;12.09;66.06;100968.22;4361733;32;33647;-85
2022/10/18 01:12:42;;;;;;;;;;;;;;;12.13;66.02;100967.38;4349853;32;33506;-86
2022/10/18 01:15:13;;;;;;;;;;;;;;;12.30;65.79;100963.03;4346745;32;33824;-86
2022/10/18 01:17:44;;;;;;;;;;;;;;;12.34;65.43;100961.28;4356072;32;33967;-85
2022/10/18 01:20:45;;;;;;;;;;;;;;;12.19;65.98;100954.34;4362247;32;33702;-85
2022/10/18 01:23:18;;;;;;;;;;;;;;;12.29;65.56;100953.47;4361012;32;33611;-90
2022/10/18 01:25:52;;;;;;;;;;;;;;;12.31;65.45;100951.75;4352462;32;33401;-86
2022/10/18 01:28:31;;;;;;;;;;;;;;;12.44;64.62;100956.94;4350118;32;33717;-87
2022/10/18 01:31:07;;;;;;;;;;;;;;;12.33;64.59;100952.63;4357101;32;33960;-85
2022/10/18 01:33:37;;;;;;;;;;;;;;;12.17;64.98;100943.06;4358469;32;33847;-87
2022/10/18 01:36:09;;;;;;;;;;;;;;;12.14;65.18;100943.94;4354342;32;33770;-84
2022/10/18 01:38:38;;;;;;;;;;;;;;;12.17;65.11;100943.94;4351031;32;34625;-90
2022/10/18 01:41:06;;;;;;;;;;;;;;;12.27;64.87;100941.34;4345282;32;32948;-86
2022/10/18 01:43:43;;;;;;;;;;;;;;;12.10;65.64;100938.72;4357232;32;33935;-87
2022/10/18 01:46:20;;;;;;;;;;;;;;;12.20;65.05;100942.19;4358086;32;34671;-89
2022/10/18 01:48:48;;;;;;;;;;;;;;;12.17;65.47;100927.47;4359459;32;34587;-89
2022/10/18 01:51:18;;;;;;;;;;;;;;;12.07;65.62;100931.78;4356482;32;33497;-84
2022/10/18 01:53:47;;;;;;;;;;;;;;;11.93;65.86;100928.31;4354685;32;34446;-86
2022/10/18 01:56:27;;;;;;;;;;;;;;;11.92;65.97;100926.59;4354127;32;34804;-87
2022/10/18 01:59:20;;;;;;;;;;;;;;;12.02;65.85;100920.53;4361066;32;33542;-88
2022/10/18 02:01:53;;;;;;;;;;;;;;;11.97;66.04;100918.78;4356007;32;33774;-85
2022/10/18 02:04:30;;;;;;;;;;;;;;;12.02;65.81;100915.31;4353690;32;34610;-87
2022/10/18 02:07:06;;;;;;;;;;;;;;;11.93;66.14;100913.56;4356195;32;34883;-89
2022/10/18 02:09:38;;;;;;;;;;;;;;;11.98;66.02;100915.31;4355891;32;34652;-86
2022/10/18 02:12:07;;;;;;;;;;;;;;;11.98;66.10;100907.50;4354990;32;32979;-85
2022/10/18 02:14:36;;;;;;;;;;;;;;;11.98;66.01;100903.16;4359272;32;34991;-90
2022/10/18 02:17:07;;;;;;;;;;;;;;;12.01;65.90;100898.00;4356911;32;33737;-86
2022/10/18 02:19:37;;;;;;;;;;;;;;;11.98;65.98;100910.12;4354411;32;34873;-87
2022/10/18 02:22:07;;;;;;;;;;;;;;;11.98;65.92;100903.16;4348843;32;33748;-86
2022/10/18 02:24:37;;;;;;;;;;;;;;;12.02;65.79;100907.53;4359868;32;34193;-88
2022/10/18 02:27:06;;;;;;;;;;;;;;;11.93;65.94;100907.50;4351540;32;33761;-85
2022/10/18 02:29:35;;;;;;;;;;;;;;;11.96;66.08;100910.12;4355557;32;34797;-84
2022/10/18 02:32:06;;;;;;;;;;;;;;;11.92;65.87;100913.59;4353438;32;33395;-87
2022/10/18 02:34:40;;;;;;;;;;;;;;;12.04;65.84;100912.72;4356017;32;33530;-85
2022/10/18 02:37:11;;;;;;;;;;;;;;;11.97;65.78;100913.59;4360033;32;34874;-86
2022/10/18 02:39:42;;;;;;;;;;;;;;;11.75;66.48;100914.41;4342078;33;33003;-89
2022/10/18 02:42:12;;;;;;;;;;;;;;;11.67;67.40;100917.84;4354906;32;33734;-85
2022/10/18 02:44:41;;;;;;;;;;;;;;;11.82;66.70;100917.03;4354663;32;33639;-86
2022/10/18 02:47:14;;;;;;;;;;;;;;;11.97;66.02;100914.47;4357309;32;34860;-86
2022/10/18 02:49:46;;;;;;;;;;;;;;;11.88;66.17;100911.84;4359908;32;33757;-85
2022/10/18 02:52:16;;;;;;;;;;;;;;;11.61;66.81;100918.69;4354665;32;33107;-85
2022/10/18 02:54:44;;;;;;;;;;;;;;;11.88;66.29;100911.84;4356751;32;33475;-89
2022/10/18 02:57:13;;;;;;;;;;;;;;;11.83;66.40;100913.53;4352277;32;32910;-87
2022/10/18 02:59:45;;;;;;;;;;;;;;;11.90;65.92;100905.78;4352050;32;34749;-86
2022/10/18 03:02:13;;;;;;;;;;;;;;;11.69;66.77;100911.81;4354044;32;33775;-85
2022/10/18 03:04:48;;;;;;;;;;;;;;;11.86;65.99;100905.72;4356757;32;33361;-85
2022/10/18 03:07:17;;;;;;;;;;;;;;;11.64;66.68;100917.84;4358477;32;33607;-85
2022/10/18 03:09:47;;;;;;;;;;;;;;;11.84;65.74;100908.34;4356004;32;34426;-86
2022/10/18 03:12:16;;;;;;;;;;;;;;;11.70;66.14;100908.31;4359620;32;32729;-86
2022/10/18 03:14:47;;;;;;;;;;;;;;;11.50;66.53;100918.69;4355480;32;33269;-87
2022/10/18 03:17:30;;;;;;;;;;;;;;;11.51;66.54;100922.16;4355068;32;34084;-87
2022/10/18 03:20:05;;;;;;;;;;;;;;;11.46;66.46;100916.94;4355754;32;33888;-87
2022/10/18 03:22:35;;;;;;;;;;;;;;;11.48;66.39;100925.59;4359084;32;32862;-86
2022/10/18 03:25:04;;;;;;;;;;;;;;;11.37;66.60;100924.69;4348758;32;33649;-87
2022/10/18 03:27:33;;;;;;;;;;;;;;;11.54;66.05;100929.94;4352254;32;32771;-86
2022/10/18 03:30:04;;;;;;;;;;;;;;;11.30;66.89;100928.13;4346570;32;34230;-86
2022/10/18 03:32:34;;;;;;;;;;;;;;;11.36;66.59;100925.56;4349188;32;32824;-86
2022/10/18 03:35:06;;;;;;;;;;;;;;;11.35;66.59;100920.34;4350436;32;32385;-89
2022/10/18 03:37:37;;;;;;;;;;;;;;;11.28;66.67;100922.06;4357333;32;33841;-88
2022/10/18 03:40:12;;;;;;;;;;;;;;;11.18;67.01;100926.34;4356581;32;34861;-86
2022/10/18 03:42:41;;;;;;;;;;;;;;;11.27;66.62;100925.53;4356291;32;32696;-85
2022/10/18 03:45:13;;;;;;;;;;;;;;;11.47;65.86;100923.84;4357714;32;34671;-85
2022/10/18 03:47:41;;;;;;;;;;;;;;;11.28;66.30;100930.75;4361581;32;34911;-90
2022/10/18 03:50:13;;;;;;;;;;;;;;;11.24;66.63;100938.50;4347949;32;33531;-86
2022/10/18 03:52:43;;;;;;;;;;;;;;;11.38;66.16;100931.66;4356676;32;33199;-87
2022/10/18 03:55:13;;;;;;;;;;;;;;;11.33;66.11;100928.13;4351665;32;33726;-86
2022/10/18 03:57:42;;;;;;;;;;;;;;;11.29;66.14;100931.59;4361477;32;36144;-88
2022/10/18 04:00:13;;;;;;;;;;;;;;;11.32;66.60;100931.59;4356301;32;33755;-85
2022/10/18 04:02:42;;;;;;;;;;;;;;;10.91;68.06;100934.88;4356255;32;33258;-86
2022/10/18 04:05:22;;;;;;;;;;;;;;;11.37;66.66;100935.09;4357253;32;33892;-88
2022/10/18 04:07:53;;;;;;;;;;;;;;;11.14;67.17;100934.12;4357021;32;34927;-85
2022/10/18 04:10:23;;;;;;;;;;;;;;;11.24;67.25;100935.91;4360538;32;34815;-84
2022/10/18 04:12:52;;;;;;;;;;;;;;;11.19;67.57;100932.44;4355070;32;33030;-85
2022/10/18 04:15:21;;;;;;;;;;;;;;;10.98;68.21;100934.06;4352896;32;34285;-84
2022/10/18 04:17:50;;;;;;;;;;;;;;;11.09;67.57;100924.59;4356550;32;33886;-87
2022/10/18 04:20:27;;;;;;;;;;;;;;;10.93;67.57;100927.12;4362498;32;34587;-86
2022/10/18 04:23:05;;;;;;;;;;;;;;;11.24;66.38;100928.13;4359004;32;33054;-86
2022/10/18 04:25:34;;;;;;;;;;;;;;;10.98;67.43;100930.59;4352794;32;34698;-88
2022/10/18 04:28:06;;;;;;;;;;;;;;;11.10;67.50;100923.72;4353540;32;34512;-86
2022/10/18 04:30:35;;;;;;;;;;;;;;;11.09;67.58;100929.78;4351359;32;34181;-89
2022/10/18 04:33:05;;;;;;;;;;;;;;;11.24;66.62;100917.72;4360622;32;32348;-87
2022/10/18 04:35:34;;;;;;;;;;;;;;;10.80;68.02;100921.84;4350474;32;33683;-88
2022/10/18 04:38:09;;;;;;;;;;;;;;;11.03;67.43;100921.09;4355747;32;35055;-85
2022/10/18 04:40:38;;;;;;;;;;;;;;;11.09;67.18;100918.53;4349968;32;34085;-87
2022/10/18 04:43:09;;;;;;;;;;;;;;;10.94;67.59;100919.31;4357389;32;32712;-86
2022/10/18 04:45:38;;;;;;;;;;;;;;;11.05;67.01;100912.44;4361918;32;33860;-84
2022/10/18 04:48:07;;;;;;;;;;;;;;;11.08;66.86;100912.47;4348093;32;34249;-85
2022/10/18 04:50:39;;;;;;;;;;;;;;;11.19;66.33;100902.13;4353951;32;33244;-85
2022/10/18 04:53:16;;;;;;;;;;;;;;;11.09;66.70;100903.81;4352927;32;33397;-86
2022/10/18 04:55:45;;;;;;;;;;;;;;;11.06;66.94;100902.94;4352442;32;34660;-85
2022/10/18 05:00:47;;;;;;;;;;;;;;;11.12;67.12;100899.50;4347402;32;34401;-87
2022/10/18 05:03:17;;;;;;;;;;;;;;;11.03;67.29;100898.59;4346903;32;33833;-87
2022/10/18 05:05:45;;;;;;;;;;;;;;;11.19;66.83;100893.47;4351017;32;33810;-85
2022/10/18 05:08:34;;;;;;;;;;;;;;;11.19;66.70;100889.16;4355082;32;34847;-87
2022/10/18 05:11:06;;;;;;;;;;;;;;;11.22;66.74;100889.16;4357528;32;34217;-89
2022/10/18 05:13:44;;;;;;;;;;;;;;;11.28;66.42;100888.28;4356784;32;33504;-86
2022/10/18 05:16:17;;;;;;;;;;;;;;;11.22;66.80;100896.06;4357724;32;33604;-85
2022/10/18 05:18:55;;;;;;;;;;;;;;;11.29;66.43;100890.03;4355753;32;33811;-86
2022/10/18 05:21:26;;;;;;;;;;;;;;;11.19;66.74;100896.06;4361057;32;33770;-85
2022/10/18 05:23:56;;;;;;;;;;;;;;;11.20;66.68;100903.00;4348927;32;34129;-86
2022/10/18 05:26:25;;;;;;;;;;;;;;;11.22;66.39;100901.28;4343733;32;35424;-85
2022/10/18 05:28:54;;;;;;;;;;;;;;;11.20;66.18;100901.25;4349180;32;34185;-88
2022/10/18 05:31:27;;;;;;;;;;;;;;;11.12;66.51;100895.19;4354411;32;34300;-88
2022/10/18 05:33:56;;;;;;;;;;;;;;;11.21;66.27;100899.50;4361305;32;33945;-87
2022/10/18 05:36:25;;;;;;;;;;;;;;;11.13;66.45;100896.03;4353801;32;34205;-87
2022/10/18 05:38:55;;;;;;;;;;;;;;;11.07;66.49;100897.75;4353483;32;33623;-86
2022/10/18 05:41:39;;;;;;;;;;;;;;;11.07;66.95;100900.34;4356298;32;33706;-86
2022/10/18 05:44:14;;;;;;;;;;;;;;;11.14;66.87;100901.25;4357087;32;33071;-87
2022/10/18 05:46:43;;;;;;;;;;;;;;;11.25;66.62;100899.53;4358175;32;33387;-87
2022/10/18 05:49:14;;;;;;;;;;;;;;;11.40;66.09;100898.72;4346007;32;33489;-86
2022/10/18 05:51:43;;;;;;;;;;;;;;;11.29;66.80;100897.84;4355710;32;33559;-86
2022/10/18 05:54:12;;;;;;;;;;;;;;;11.26;67.18;100903.00;4357330;32;33657;-85
2022/10/18 05:56:45;;;;;;;;;;;;;;;11.37;67.07;100900.44;4360206;32;33831;-88
2022/10/18 05:59:13;;;;;;;;;;;;;;;11.38;67.05;100904.78;4349291;32;35009;-86
2022/10/18 06:01:42;;;;;;;;;;;;;;;11.39;67.24;100902.19;4341616;33;34048;-89
2022/10/18 06:04:11;;;;;;;;;;;;;;;11.37;67.60;100906.50;4341861;33;32691;-88
2022/10/18 06:06:40;;;;;;;;;;;;;;;11.44;67.56;100902.19;4355572;32;33744;-88
2022/10/18 06:09:09;;;;;;;;;;;;;;;11.45;67.63;100902.22;4361496;32;33799;-86
2022/10/18 06:11:41;;;;;;;;;;;;;;;11.40;68.02;100901.31;4356235;32;34107;-85
2022/10/18 06:14:11;;;;;;;;;;;;;;;11.62;67.42;100903.97;4348821;32;33991;-86
2022/10/18 06:16:41;;;;;;;;;;;;;;;11.43;68.19;100903.94;4350305;32;34744;-84
2022/10/18 06:19:10;;;;;;;;;;;;;;;11.52;68.49;100908.28;4353694;32;34387;-87
2022/10/18 06:21:42;;;;;;;;;;;;;;;11.78;68.17;100905.72;4350411;32;33036;-87
2022/10/18 06:24:11;;;;;;;;;;;;;;;11.78;68.40;100905.72;4356523;32;33947;-86
2022/10/18 06:26:44;;;;;;;;;;;;;;;11.76;68.93;100912.66;4354772;32;34142;-88
2022/10/18 06:29:14;;;;;;;;;;;;;;;12.01;68.62;100913.59;4354252;32;34723;-85
2022/10/18 06:31:45;;;;;;;;;;;;;;;12.04;69.15;100915.34;4357509;32;33279;-87
2022/10/18 06:34:13;;;;;;;;;;;;;;;12.09;69.38;100916.19;4355972;32;33623;-88
2022/10/18 06:36:43;;;;;;;;;;;;;;;12.22;69.22;100906.66;4359496;32;33840;-86
2022/10/18 06:39:12;;;;;;;;;;;;;;;12.24;69.07;100910.12;4357806;32;33852;-89
2022/10/18 06:41:47;;;;;;;;;;;;;;;12.27;69.75;100910.12;4361283;32;34669;-86
2022/10/18 06:44:18;;;;;;;;;;;;;;;12.31;69.57;100912.72;4351283;32;32780;-86
2022/10/18 06:46:49;;;;;;;;;;;;;;;12.59;69.19;100918.75;4353456;32;33982;-85
2022/10/18 06:49:17;;;;;;;;;;;;;;;12.41;69.79;100918.78;4354361;32;34982;-85
2022/10/18 06:51:47;;;;;;;;;;;;;;;12.61;69.83;100918.75;4352432;32;33127;-87
2022/10/18 06:54:16;;;;;;;;;;;;;;;12.72;69.67;100913.53;4354685;32;34013;-87
2022/10/18 06:56:47;;;;;;;;;;;;;;;12.76;69.80;100921.34;4348374;32;33588;-86
2022/10/18 06:59:20;;;;;;;;;;;;;;;12.95;69.09;100923.88;4349018;32;34483;-88
2022/10/18 07:01:49;;;;;;;;;;;;;;;12.92;69.46;100924.75;4354058;32;33240;-87
2022/10/18 07:04:21;;;;;;;;;;;;;;;12.89;69.85;100934.31;4361583;32;34109;-86
2022/10/18 07:06:55;;;;;;;;;;;;;;;13.18;68.88;100931.63;4356182;32;34065;-87
2022/10/18 07:09:23;;;;;;;;;;;;;;;13.28;68.36;100929.88;4349074;32;35547;-86
2022/10/18 07:11:52;;;;;;;;;;;;;;;13.35;68.31;100931.56;4347685;32;33892;-87
2022/10/18 07:14:22;;;;;;;;;;;;;;;13.39;68.15;100923.72;4349476;32;32507;-88
2022/10/18 07:16:58;;;;;;;;;;;;;;;13.43;68.36;100929.78;4348959;32;34633;-88
2022/10/18 07:19:26;;;;;;;;;;;;;;;13.61;67.71;100928.84;4342886;33;34645;-90
2022/10/18 07:21:55;;;;;;;;;;;;;;;13.55;68.13;100921.03;4346416;32;33641;-87
2022/10/18 07:24:27;;;;;;;;;;;;;;;13.69;67.58;100918.34;4350459;32;32761;-86
2022/10/18 07:26:56;;;;;;;;;;;;;;;13.78;67.36;100913.09;4360888;32;34858;-87
2022/10/18 07:29:30;;;;;;;;;;;;;;;13.69;67.55;100914.00;4349995;32;34031;-86
2022/10/18 07:31:59;;;;;;;;;;;;;;;14.00;65.86;100912.03;4347768;32;33761;-85
2022/10/18 07:34:30;;;;;;;;;;;;;;;13.86;65.99;100906.06;4355641;32;35615;-87
2022/10/18 07:36:59;;;;;;;;;;;;;;;13.95;65.82;100907.75;4357314;32;33952;-87
2022/10/18 07:39:35;;;;;;;;;;;;;;;14.21;64.82;100897.09;4353421;32;33627;-90
2022/10/18 07:42:03;;;;;;;;;;;;;;;14.28;64.80;100901.37;4356055;32;33908;-86
2022/10/18 07:44:33;;;;;;;;;;;;;;;14.30;64.57;100908.31;4355928;32;33070;-89
2022/10/18 07:47:02;;;;;;;;;;;;;;;14.20;64.47;100909.25;4356896;32;33579;-86
2022/10/18 07:49:31;;;;;;;;;;;;;;;14.35;64.13;100908.25;4356307;32;33768;-88
2022/10/18 07:52:13;;;;;;;;;;;;;;;14.37;64.24;100909.13;4357185;32;34120;-86
2022/10/18 07:54:41;;;;;;;;;;;;;;;14.58;63.72;100913.31;4348290;32;34196;-86
2022/10/18 07:57:18;;;;;;;;;;;;;;;14.68;63.47;100912.31;4347367;32;33643;-88
2022/10/18 07:59:55;;;;;;;;;;;;;;;14.62;63.84;100911.53;4354184;32;33861;-87
2022/10/18 08:02:24;;;;;;;;;;;;;;;14.87;62.48;100906.91;4354879;32;34300;-88
2022/10/18 08:04:58;;;;;;;;;;;;;;;14.81;62.36;100901.72;4360009;32;33323;-86
2022/10/18 08:07:26;;;;;;;;;;;;;;;14.77;59.22;100893.09;4356914;32;33397;-86
2022/10/18 08:10:03;;;;;;;;;;;;;;;14.91;58.39;100896.41;4349204;32;33958;-89
2022/10/18 08:12:31;;;;;;;;;;;;;;;14.88;58.10;100892.94;4347085;32;35600;-87
2022/10/18 08:15:06;;;;;;;;;;;;;;;14.83;57.94;100885.16;4345531;33;33006;-87
2022/10/18 08:17:37;;;;;;;;;;;;;;;14.92;57.04;100884.19;4344304;33;33991;-87
2022/10/18 08:20:06;;;;;;;;;;;;;;;15.02;56.95;100882.34;4344892;32;34843;-90
2022/10/18 08:22:53;;;;;;;;;;;;;;;14.87;57.59;100873.81;4351741;32;33402;-90
2022/10/18 08:25:28;;;;;;;;;;;;;;;15.27;55.10;100875.91;4357348;32;32960;-90
2022/10/18 08:28:00;;;;;;;;;;;;;;;15.13;55.93;100875.25;4362484;32;34239;-87
2022/10/18 08:30:31;;;;;;;;;;;;;;;15.21;55.62;100873.38;4361864;32;34322;-89
2022/10/18 08:33:02;;;;;;;;;;;;;;;15.41;54.81;100860.00;4357611;32;34737;-88
2022/10/18 08:35:31;;;;;;;;;;;;;;;15.56;54.76;100866.81;4357840;32;33654;-87
2022/10/18 08:38:02;;;;;;;;;;;;;;;15.41;54.34;100867.84;4353416;32;33980;-86
2022/10/18 08:40:33;;;;;;;;;;;;;;;15.65;53.80;100863.16;4362161;32;34325;-85
2022/10/18 08:43:11;;;;;;;;;;;;;;;15.70;52.73;100857.00;4357868;32;34234;-87
2022/10/18 08:45:43;;;;;;;;;;;;;;;15.53;52.31;100853.75;4358501;32;33436;-86
2022/10/18 08:48:18;;;;;;;;;;;;;;;15.73;52.01;100851.75;4352215;32;34125;-87
2022/10/18 08:50:48;;;;;;;;;;;;;;;15.56;53.25;100851.09;4342344;32;33251;-89
2022/10/18 08:53:24;;;;;;;;;;;;;;;15.78;52.96;100851.66;4349127;32;33584;-88
2022/10/18 08:56:00;;;;;;;;;;;;;;;15.95;52.08;100844.41;4356619;32;33912;-87
2022/10/18 08:58:35;;;;;;;;;;;;;;;15.91;52.38;100842.72;4356141;32;33533;-86
2022/10/18 09:01:08;;;;;;;;;;;;;;;16.03;51.61;100831.19;4356545;32;33580;-86
2022/10/18 09:04:11;;;;;;;;;;;;;;;16.24;51.33;100834.28;4357611;32;34221;-86
2022/10/18 09:06:42;;;;;;;;;;;;;;;16.13;51.61;100837.09;4358934;32;34055;-89
2022/10/18 09:09:23;;;;;;;;;;;;;;;16.31;51.04;100826.31;4361816;32;33856;-89
2022/10/18 09:11:56;;;;;;;;;;;;;;;16.36;49.17;100818.38;4356657;32;34293;-90
2022/10/18 09:14:36;;;;;;;;;;;;;;;16.38;49.15;100821.81;4357340;32;34411;-87
2022/10/18 09:17:10;;;;;;;;;;;;;;;16.65;49.39;100825.66;4357760;32;33922;-87
2022/10/18 09:19:53;;;;;;;;;;;;;;;16.52;49.42;100826.78;4357690;32;34178;-89
2022/10/18 09:22:25;;;;;;;;;;;;;;;16.62;49.10;100823.06;4362059;32;33946;-86
2022/10/18 09:25:00;;;;;;;;;;;;;;;16.68;48.46;100815.12;4357488;32;34191;-87
2022/10/18 09:27:33;;;;;;;;;;;;;;;16.89;47.92;100821.72;4360382;32;33149;-88
2022/10/18 09:30:03;;;;;;;;;;;;;;;16.90;47.79;100818.19;4357198;32;33620;-86
2022/10/18 09:32:41;;;;;;;;;;;;;;;17.02;48.29;100814.44;4357384;32;34421;-92
2022/10/18 09:35:12;;;;;;;;;;;;;;;16.94;48.58;100809.38;4361766;32;34030;-87
2022/10/18 09:37:48;;;;;;;;;;;;;;;16.92;47.21;100803.28;4361739;32;32740;-90
2022/10/18 09:40:17;;;;;;;;;;;;;;;17.05;46.27;100799.47;4348058;32;34243;-91
2022/10/18 09:42:50;;;;;;;;;;;;;;;17.13;45.74;100798.44;4340617;33;33513;-87
2022/10/18 09:45:22;;;;;;;;;;;;;;;17.32;46.12;100796.28;4342783;33;34501;-90
2022/10/18 09:47:54;;;;;;;;;;;;;;;17.36;46.17;100793.53;4347205;33;32755;-90
2022/10/18 09:50:31;;;;;;;;;;;;;;;17.28;46.83;100788.50;4343811;33;34629;-86
2022/10/18 09:53:05;;;;;;;;;;;;;;;17.47;46.15;100788.91;4342164;33;33638;-88
2022/10/18 09:55:35;;;;;;;;;;;;;;;17.45;44.00;100782.84;4342348;33;33766;-86
2022/10/18 09:58:05;;;;;;;;;;;;;;;17.46;44.51;100776.69;4345154;33;31975;-90
2022/10/18 10:00:34;;;;;;;;;;;;;;;17.77;44.55;100783.81;4347064;33;33030;-88
2022/10/18 10:03:10;;;;;;;;;;;;;;;17.59;45.46;100779.87;4342556;32;34717;-88
2022/10/18 10:05:38;;;;;;;;;;;;;;;17.81;45.98;100777.62;4349524;32;34446;-89
2022/10/18 10:08:08;;;;;;;;;;;;;;;17.78;45.14;100777.62;4356981;32;33032;-87
2022/10/18 10:10:38;;;;;;;;;;;;;;;17.93;45.75;100771.19;4361433;32;34406;-89
2022/10/18 10:13:11;;;;;;;;;;;;;;;18.00;45.24;100764.88;4357132;32;33464;-88
2022/10/18 10:15:40;;;;;;;;;;;;;;;17.89;45.78;100757.25;4357108;32;33932;-89
2022/10/18 10:18:19;;;;;;;;;;;;;;;18.15;45.51;100755.72;4360972;32;33692;-91
2022/10/18 10:20:48;;;;;;;;;;;;;;;18.07;45.44;100755.03;4357331;32;34930;-88
2022/10/18 10:23:20;;;;;;;;;;;;;;;18.22;44.57;100752.03;4361473;32;33822;-87
2022/10/18 10:25:57;;;;;;;;;;;;;;;18.33;44.78;100746.44;4346779;32;33890;-86
2022/10/18 10:28:28;;;;;;;;;;;;;;;18.36;44.92;100741.09;4359140;32;33889;-86
2022/10/18 10:31:19;;;;;;;;;;;;;;;18.41;45.14;100740.97;4343006;32;34119;-90
2022/10/18 10:33:48;;;;;;;;;;;;;;;18.33;44.57;100739.41;4342085;32;35064;-88
2022/10/18 10:36:18;;;;;;;;;;;;;;;18.46;44.47;100737.31;4345231;33;32871;-86
2022/10/18 10:38:47;;;;;;;;;;;;;;;18.41;44.78;100733.97;4355773;32;32422;-87
2022/10/18 10:41:22;;;;;;;;;;;;;;;18.49;44.53;100734.59;4357203;32;35136;-87
2022/10/18 10:43:51;;;;;;;;;;;;;;;18.66;44.29;100723.59;4356580;32;34107;-87
2022/10/18 10:46:22;;;;;;;;;;;;;;;18.46;44.67;100729.44;4358482;32;32772;-90
2022/10/18 10:48:51;;;;;;;;;;;;;;;18.88;43.04;100717.72;4361786;32;32900;-90
2022/10/18 10:51:48;;;;;;;;;;;;;;;18.97;42.58;100709.53;4357898;32;33597;-88
2022/10/18 10:54:34;;;;;;;;;;;;;;;19.04;41.72;100708.44;4357159;32;35121;-89
2022/10/18 10:57:04;;;;;;;;;;;;;;;19.09;42.94;100705.66;4358534;32;33658;-91
2022/10/18 10:59:40;;;;;;;;;;;;;;;19.09;43.81;100705.66;4349637;32;33192;-87
2022/10/18 11:02:20;;;;;;;;;;;;;;;18.82;43.73;100702.13;4361887;32;34179;-91
2022/10/18 11:04:51;;;;;;;;;;;;;;;19.09;42.66;100692.50;4358420;32;35468;-88
2022/10/18 11:07:23;;;;;;;;;;;;;;;19.41;43.18;100696.69;4361335;32;33308;-89
2022/10/18 11:09:57;;;;;;;;;;;;;;;19.52;41.78;100691.06;4356135;32;32624;-87
2022/10/18 11:12:35;;;;;;;;;;;;;;;19.52;41.96;100689.31;4356525;32;33683;-88
2022/10/18 11:15:10;;;;;;;;;;;;;;;19.43;41.99;100679.09;4360828;32;34865;-87
2022/10/18 11:17:41;;;;;;;;;;;;;;;19.29;42.39;100684.81;4362257;32;34136;-86
2022/10/18 11:20:16;;;;;;;;;;;;;;;19.17;40.87;100679.97;4359046;32;33350;-90
2022/10/18 11:22:49;;;;;;;;;;;;;;;19.35;40.11;100675.84;4356257;32;33954;-88
2022/10/18 11:25:19;;;;;;;;;;;;;;;19.66;40.82;100670.38;4353606;32;34397;-89
2022/10/18 11:27:53;;;;;;;;;;;;;;;19.62;41.11;100668.78;4358971;32;34155;-91
2022/10/18 11:30:37;;;;;;;;;;;;;;;19.61;41.34;100667.06;4346940;32;33609;-89
2022/10/18 11:33:08;;;;;;;;;;;;;;;19.61;40.43;100662.66;4340362;32;34331;-91
2022/10/18 11:35:41;;;;;;;;;;;;;;;19.50;41.64;100664.81;4340258;33;33169;-87
2022/10/18 11:38:14;;;;;;;;;;;;;;;19.52;40.07;100654.22;4350043;32;34711;-88
2022/10/18 11:40:45;;;;;;;;;;;;;;;19.89;40.16;100656.44;4361235;32;33003;-89
2022/10/18 11:43:19;;;;;;;;;;;;;;;19.67;41.02;100653.69;4356565;32;33989;-91
2022/10/18 11:45:51;;;;;;;;;;;;;;;19.77;39.79;100652.47;4357785;32;34124;-86
2022/10/18 11:48:46;;;;;;;;;;;;;;;19.94;39.78;100638.69;4358909;32;33598;-87
2022/10/18 11:51:23;;;;;;;;;;;;;;;20.05;40.11;100630.37;4349228;32;33799;-87
2022/10/18 11:54:19;;;;;;;;;;;;;;;20.02;40.68;100630.50;4354519;32;33199;-88
2022/10/18 11:56:50;;;;;;;;;;;;;;;20.08;41.05;100635.56;4349891;32;33818;-88
2022/10/18 11:59:24;;;;;;;;;;;;;;;19.99;40.61;100626.22;4347076;33;34195;-87
2022/10/18 12:01:54;;;;;;;;;;;;;;;19.80;39.28;100626.03;4344501;33;33004;-91
2022/10/18 12:04:23;;;;;;;;;;;;;;;20.03;40.19;100617.28;4342282;33;31974;-90
2022/10/18 12:06:54;;;;;;;;;;;;;;;20.13;39.89;100615.16;4343205;33;33533;-87
2022/10/18 12:09:26;;;;;;;;;;;;;;;20.11;38.89;100609.09;4348144;33;34143;-90
2022/10/18 12:11:55;;;;;;;;;;;;;;;20.22;38.47;100601.66;4343236;33;32992;-86
2022/10/18 12:14:27;;;;;;;;;;;;;;;20.33;37.86;100598.59;4347750;32;32493;-87
2022/10/18 12:17:01;;;;;;;;;;;;;;;20.49;37.91;100592.69;4356242;32;34871;-87
2022/10/18 12:19:54;;;;;;;;;;;;;;;20.25;39.28;100596.25;4347001;32;34089;-87
2022/10/18 12:22:25;;;;;;;;;;;;;;;20.45;39.98;100587.56;4349389;32;33091;-87
2022/10/18 12:24:56;;;;;;;;;;;;;;;20.53;39.14;100583.75;4356626;32;33221;-87
2022/10/18 12:27:27;;;;;;;;;;;;;;;20.37;39.09;100580.84;4357071;32;32413;-89
2022/10/18 12:29:57;;;;;;;;;;;;;;;20.42;39.60;100571.88;4355724;32;33368;-88
2022/10/18 12:32:27;;;;;;;;;;;;;;;20.50;40.13;100573.34;4358713;32;32165;-89
2022/10/18 12:34:59;;;;;;;;;;;;;;;20.50;39.14;100571.56;4357964;32;34157;-91
2022/10/18 12:37:37;;;;;;;;;;;;;;;20.48;39.59;100564.62;4359957;32;34511;-89
2022/10/18 12:40:09;;;;;;;;;;;;;;;20.41;40.10;100564.88;4352128;32;33350;-86
2022/10/18 12:42:49;;;;;;;;;;;;;;;20.45;39.80;100561.19;4350683;32;32834;-86
2022/10/18 12:45:25;;;;;;;;;;;;;;;20.47;38.28;100555.87;4352543;32;34287;-88
2022/10/18 12:47:54;;;;;;;;;;;;;;;20.50;38.95;100554.91;4354449;32;34233;-87
2022/10/18 12:50:25;;;;;;;;;;;;;;;20.55;39.10;100552.91;4357085;32;33667;-89
2022/10/18 12:53:09;;;;;;;;;;;;;;;20.63;39.77;100553.47;4345788;32;32931;-87
2022/10/18 12:55:38;;;;;;;;;;;;;;;20.45;37.98;100548.03;4342589;33;34484;-88
2022/10/18 12:58:21;;;;;;;;;;;;;;;20.61;38.98;100539.50;4346112;33;33205;-89
2022/10/18 13:00:54;;;;;;;;;;;;;;;20.59;38.41;100530.81;4346620;33;33823;-87
2022/10/18 13:03:41;;;;;;;;;;;;;;;20.44;38.26;100524.34;4345803;33;33098;-89
2022/10/18 13:06:11;;;;;;;;;;;;;;;20.61;39.12;100528.97;4351851;32;33560;-90
2022/10/18 13:08:47;;;;;;;;;;;;;;;20.63;38.49;100520.09;4347023;32;34042;-91